sensor_id;sensor_type;location;lat;lon;timestamp;P1;durP1;ratioP1;P2;durP2;ratioP2
42724;SDS011;28369;44.046;23.014;2023-03-23T00:01:26;71.10;;;45.97;;
42724;SDS011;28369;44.046;23.014;2023-03-23T00:03:55;81.68;;;51.72;;
42724;SDS011;28369;44.046;23.014;2023-03-23T00:06:26;97.55;;;55.35;;
42724;SDS011;28369;44.046;23.014;2023-03-23T00:08:53;87.45;;;51.70;;
42724;SDS011;28369;44.046;23.014;2023-03-23T00:11:28;72.00;;;44.08;;
42724;SDS011;28369;44.046;23.014;2023-03-23T00:13:56;71.25;;;43.35;;
42724;SDS011;28369;44.046;23.014;2023-03-23T00:16:27;70.55;;;44.65;;
42724;SDS011;28369;44.046;23.014;2023-03-23T00:19:00;67.43;;;42.40;;
42724;SDS011;28369;44.046;23.014;2023-03-23T00:21:29;66.72;;;43.90;;
42724;SDS011;28369;44.046;23.014;2023-03-23T00:24:07;71.72;;;46.60;;
42724;SDS011;28369;44.046;23.014;2023-03-23T00:26:37;80.50;;;46.85;;
42724;SDS011;28369;44.046;23.014;2023-03-23T00:29:05;82.65;;;50.85;;
42724;SDS011;28369;44.046;23.014;2023-03-23T00:31:35;84.78;;;52.72;;
42724;SDS011;28369;44.046;23.014;2023-03-23T00:34:02;86.57;;;50.88;;
42724;SDS011;28369;44.046;23.014;2023-03-23T00:36:33;79.03;;;48.78;;
42724;SDS011;28369;44.046;23.014;2023-03-23T00:39:03;80.78;;;46.17;;
42724;SDS011;28369;44.046;23.014;2023-03-23T00:41:29;70.85;;;43.03;;
42724;SDS011;28369;44.046;23.014;2023-03-23T00:43:56;68.50;;;44.55;;
42724;SDS011;28369;44.046;23.014;2023-03-23T00:46:25;72.55;;;45.55;;
42724;SDS011;28369;44.046;23.014;2023-03-23T00:48:53;74.03;;;46.08;;
42724;SDS011;28369;44.046;23.014;2023-03-23T00:51:19;72.43;;;46.72;;
42724;SDS011;28369;44.046;23.014;2023-03-23T00:53:45;71.43;;;47.60;;
42724;SDS011;28369;44.046;23.014;2023-03-23T00:56:12;71.50;;;45.97;;
42724;SDS011;28369;44.046;23.014;2023-03-23T00:58:38;68.03;;;44.15;;
42724;SDS011;28369;44.046;23.014;2023-03-23T01:01:04;83.22;;;47.20;;
42724;SDS011;28369;44.046;23.014;2023-03-23T01:03:30;70.30;;;46.75;;
42724;SDS011;28369;44.046;23.014;2023-03-23T01:05:56;70.13;;;45.10;;
42724;SDS011;28369;44.046;23.014;2023-03-23T01:08:22;65.32;;;43.25;;
42724;SDS011;28369;44.046;23.014;2023-03-23T01:10:49;61.33;;;43.60;;
42724;SDS011;28369;44.046;23.014;2023-03-23T01:13:15;68.63;;;43.17;;
42724;SDS011;28369;44.046;23.014;2023-03-23T01:15:42;64.57;;;43.65;;
42724;SDS011;28369;44.046;23.014;2023-03-23T01:18:09;67.60;;;41.90;;
42724;SDS011;28369;44.046;23.014;2023-03-23T01:20:36;56.70;;;39.50;;
42724;SDS011;28369;44.046;23.014;2023-03-23T01:23:02;77.15;;;42.70;;
42724;SDS011;28369;44.046;23.014;2023-03-23T01:25:29;55.70;;;38.70;;
42724;SDS011;28369;44.046;23.014;2023-03-23T01:27:57;67.30;;;42.42;;
42724;SDS011;28369;44.046;23.014;2023-03-23T01:30:24;72.35;;;42.65;;
42724;SDS011;28369;44.046;23.014;2023-03-23T01:32:51;69.25;;;42.83;;
42724;SDS011;28369;44.046;23.014;2023-03-23T01:35:16;71.97;;;43.33;;
42724;SDS011;28369;44.046;23.014;2023-03-23T01:37:43;49.95;;;35.03;;
42724;SDS011;28369;44.046;23.014;2023-03-23T01:40:09;52.10;;;34.55;;
42724;SDS011;28369;44.046;23.014;2023-03-23T01:42:36;42.33;;;31.48;;
42724;SDS011;28369;44.046;23.014;2023-03-23T01:47:56;61.75;;;26.02;;
42724;SDS011;28369;44.046;23.014;2023-03-23T01:50:26;32.42;;;23.77;;
42724;SDS011;28369;44.046;23.014;2023-03-23T01:52:55;70.88;;;23.75;;
42724;SDS011;28369;44.046;23.014;2023-03-23T01:55:23;220.38;;;29.67;;
42724;SDS011;28369;44.046;23.014;2023-03-23T01:57:51;53.95;;;31.17;;
42724;SDS011;28369;44.046;23.014;2023-03-23T02:00:19;57.30;;;30.08;;
42724;SDS011;28369;44.046;23.014;2023-03-23T02:02:47;54.30;;;30.60;;
42724;SDS011;28369;44.046;23.014;2023-03-23T02:05:18;44.67;;;30.27;;
42724;SDS011;28369;44.046;23.014;2023-03-23T02:07:49;42.83;;;29.60;;
42724;SDS011;28369;44.046;23.014;2023-03-23T02:10:16;157.40;;;31.70;;
42724;SDS011;28369;44.046;23.014;2023-03-23T02:12:42;167.50;;;28.75;;
42724;SDS011;28369;44.046;23.014;2023-03-23T02:15:07;196.02;;;33.22;;
42724;SDS011;28369;44.046;23.014;2023-03-23T02:17:50;143.30;;;31.65;;
42724;SDS011;28369;44.046;23.014;2023-03-23T02:23:47;216.40;;;30.10;;
42724;SDS011;28369;44.046;23.014;2023-03-23T02:27:01;378.48;;;38.05;;
42724;SDS011;28369;44.046;23.014;2023-03-23T02:35:12;311.45;;;43.72;;
42724;SDS011;28369;44.046;23.014;2023-03-23T02:40:25;464.75;;;55.20;;
42724;SDS011;28369;44.046;23.014;2023-03-23T02:42:56;414.65;;;54.08;;
42724;SDS011;28369;44.046;23.014;2023-03-23T02:45:23;238.95;;;43.42;;
42724;SDS011;28369;44.046;23.014;2023-03-23T02:47:52;273.40;;;47.25;;
42724;SDS011;28369;44.046;23.014;2023-03-23T02:50:20;399.55;;;53.45;;
42724;SDS011;28369;44.046;23.014;2023-03-23T02:52:49;393.80;;;54.47;;
42724;SDS011;28369;44.046;23.014;2023-03-23T02:55:17;311.17;;;49.80;;
42724;SDS011;28369;44.046;23.014;2023-03-23T02:57:45;302.02;;;53.40;;
42724;SDS011;28369;44.046;23.014;2023-03-23T03:00:12;227.55;;;48.28;;
42724;SDS011;28369;44.046;23.014;2023-03-23T03:02:41;230.57;;;46.00;;
42724;SDS011;28369;44.046;23.014;2023-03-23T03:05:14;163.75;;;39.95;;
42724;SDS011;28369;44.046;23.014;2023-03-23T03:10:46;68.10;;;37.55;;
42724;SDS011;28369;44.046;23.014;2023-03-23T03:13:25;90.15;;;43.15;;
42724;SDS011;28369;44.046;23.014;2023-03-23T03:18:39;238.63;;;50.75;;
42724;SDS011;28369;44.046;23.014;2023-03-23T03:21:09;354.95;;;54.58;;
42724;SDS011;28369;44.046;23.014;2023-03-23T03:23:38;261.25;;;49.55;;
42724;SDS011;28369;44.046;23.014;2023-03-23T03:26:06;569.83;;;62.58;;
42724;SDS011;28369;44.046;23.014;2023-03-23T03:28:35;395.92;;;53.25;;
42724;SDS011;28369;44.046;23.014;2023-03-23T03:31:02;432.27;;;53.53;;
42724;SDS011;28369;44.046;23.014;2023-03-23T03:33:29;350.60;;;47.60;;
42724;SDS011;28369;44.046;23.014;2023-03-23T03:36:00;639.03;;;59.63;;
42724;SDS011;28369;44.046;23.014;2023-03-23T03:38:28;360.35;;;42.72;;
42724;SDS011;28369;44.046;23.014;2023-03-23T03:40:54;348.63;;;41.95;;
42724;SDS011;28369;44.046;23.014;2023-03-23T03:43:21;623.90;;;57.45;;
42724;SDS011;28369;44.046;23.014;2023-03-23T03:45:47;453.75;;;47.90;;
42724;SDS011;28369;44.046;23.014;2023-03-23T03:48:13;343.48;;;41.08;;
42724;SDS011;28369;44.046;23.014;2023-03-23T03:50:38;367.38;;;41.58;;
42724;SDS011;28369;44.046;23.014;2023-03-23T03:53:06;329.17;;;44.50;;
42724;SDS011;28369;44.046;23.014;2023-03-23T03:55:32;297.00;;;43.80;;
42724;SDS011;28369;44.046;23.014;2023-03-23T04:00:29;354.85;;;44.47;;
42724;SDS011;28369;44.046;23.014;2023-03-23T04:02:55;474.65;;;56.03;;
42724;SDS011;28369;44.046;23.014;2023-03-23T04:05:21;455.63;;;58.70;;
42724;SDS011;28369;44.046;23.014;2023-03-23T04:07:48;457.70;;;59.55;;
42724;SDS011;28369;44.046;23.014;2023-03-23T04:10:17;618.15;;;73.57;;
42724;SDS011;28369;44.046;23.014;2023-03-23T04:12:46;269.17;;;50.75;;
42724;SDS011;28369;44.046;23.014;2023-03-23T04:15:15;295.85;;;46.83;;
42724;SDS011;28369;44.046;23.014;2023-03-23T04:17:42;283.73;;;46.83;;
42724;SDS011;28369;44.046;23.014;2023-03-23T04:20:08;524.47;;;68.00;;
42724;SDS011;28369;44.046;23.014;2023-03-23T04:22:37;302.20;;;50.25;;
42724;SDS011;28369;44.046;23.014;2023-03-23T04:25:03;361.02;;;54.38;;
42724;SDS011;28369;44.046;23.014;2023-03-23T04:27:31;498.10;;;59.00;;
42724;SDS011;28369;44.046;23.014;2023-03-23T04:29:57;455.05;;;52.92;;
42724;SDS011;28369;44.046;23.014;2023-03-23T04:32:27;665.70;;;67.25;;
42724;SDS011;28369;44.046;23.014;2023-03-23T04:34:56;495.63;;;53.08;;
42724;SDS011;28369;44.046;23.014;2023-03-23T04:37:26;366.60;;;48.70;;
42724;SDS011;28369;44.046;23.014;2023-03-23T04:40:02;353.88;;;51.95;;
42724;SDS011;28369;44.046;23.014;2023-03-23T04:42:33;322.50;;;52.30;;
42724;SDS011;28369;44.046;23.014;2023-03-23T04:44:59;318.30;;;51.88;;
42724;SDS011;28369;44.046;23.014;2023-03-23T04:47:25;378.23;;;51.47;;
42724;SDS011;28369;44.046;23.014;2023-03-23T04:49:55;701.08;;;78.80;;
42724;SDS011;28369;44.046;23.014;2023-03-23T04:52:22;467.40;;;55.90;;
42724;SDS011;28369;44.046;23.014;2023-03-23T04:54:51;360.30;;;47.50;;
42724;SDS011;28369;44.046;23.014;2023-03-23T04:57:17;491.48;;;59.33;;
42724;SDS011;28369;44.046;23.014;2023-03-23T04:59:44;397.63;;;51.40;;
42724;SDS011;28369;44.046;23.014;2023-03-23T05:02:10;366.00;;;50.30;;
42724;SDS011;28369;44.046;23.014;2023-03-23T05:04:38;295.33;;;46.83;;
42724;SDS011;28369;44.046;23.014;2023-03-23T05:07:06;480.90;;;54.97;;
42724;SDS011;28369;44.046;23.014;2023-03-23T05:09:36;423.70;;;54.22;;
42724;SDS011;28369;44.046;23.014;2023-03-23T05:12:05;248.27;;;44.20;;
42724;SDS011;28369;44.046;23.014;2023-03-23T05:14:32;307.33;;;47.20;;
42724;SDS011;28369;44.046;23.014;2023-03-23T05:16:58;425.13;;;58.97;;
42724;SDS011;28369;44.046;23.014;2023-03-23T05:19:24;366.55;;;55.25;;
42724;SDS011;28369;44.046;23.014;2023-03-23T05:21:49;239.70;;;49.78;;
42724;SDS011;28369;44.046;23.014;2023-03-23T05:24:15;317.17;;;49.78;;
42724;SDS011;28369;44.046;23.014;2023-03-23T05:26:40;410.48;;;57.65;;
42724;SDS011;28369;44.046;23.014;2023-03-23T05:29:06;494.15;;;64.20;;
42724;SDS011;28369;44.046;23.014;2023-03-23T05:31:32;652.05;;;77.05;;
42724;SDS011;28369;44.046;23.014;2023-03-23T05:33:58;375.55;;;58.72;;
42724;SDS011;28369;44.046;23.014;2023-03-23T05:36:24;314.33;;;52.20;;
42724;SDS011;28369;44.046;23.014;2023-03-23T05:38:52;547.35;;;63.88;;
42724;SDS011;28369;44.046;23.014;2023-03-23T05:41:18;275.42;;;49.22;;
42724;SDS011;28369;44.046;23.014;2023-03-23T05:43:44;344.83;;;58.05;;
42724;SDS011;28369;44.046;23.014;2023-03-23T05:46:09;237.20;;;50.22;;
42724;SDS011;28369;44.046;23.014;2023-03-23T05:48:35;564.58;;;79.80;;
42724;SDS011;28369;44.046;23.014;2023-03-23T05:51:01;397.10;;;51.30;;
42724;SDS011;28369;44.046;23.014;2023-03-23T05:53:27;267.35;;;46.95;;
42724;SDS011;28369;44.046;23.014;2023-03-23T05:55:57;354.02;;;50.25;;
42724;SDS011;28369;44.046;23.014;2023-03-23T05:58:23;331.20;;;49.90;;
42724;SDS011;28369;44.046;23.014;2023-03-23T06:00:49;276.88;;;44.10;;
42724;SDS011;28369;44.046;23.014;2023-03-23T06:03:15;375.98;;;44.85;;
42724;SDS011;28369;44.046;23.014;2023-03-23T06:05:44;289.58;;;48.42;;
42724;SDS011;28369;44.046;23.014;2023-03-23T06:08:10;328.67;;;46.88;;
42724;SDS011;28369;44.046;23.014;2023-03-23T06:10:36;511.23;;;52.60;;
42724;SDS011;28369;44.046;23.014;2023-03-23T06:13:03;662.40;;;54.78;;
42724;SDS011;28369;44.046;23.014;2023-03-23T06:15:30;516.85;;;43.92;;
42724;SDS011;28369;44.046;23.014;2023-03-23T06:18:03;422.05;;;44.03;;
42724;SDS011;28369;44.046;23.014;2023-03-23T06:20:30;393.13;;;44.97;;
42724;SDS011;28369;44.046;23.014;2023-03-23T06:22:57;458.90;;;47.65;;
42724;SDS011;28369;44.046;23.014;2023-03-23T06:25:23;560.20;;;54.35;;
42724;SDS011;28369;44.046;23.014;2023-03-23T06:27:49;324.20;;;51.50;;
42724;SDS011;28369;44.046;23.014;2023-03-23T06:30:17;191.73;;;38.25;;
42724;SDS011;28369;44.046;23.014;2023-03-23T06:32:42;269.65;;;38.78;;
42724;SDS011;28369;44.046;23.014;2023-03-23T06:35:11;397.40;;;66.65;;
42724;SDS011;28369;44.046;23.014;2023-03-23T06:37:38;401.50;;;59.63;;
42724;SDS011;28369;44.046;23.014;2023-03-23T06:40:05;323.20;;;49.65;;
42724;SDS011;28369;44.046;23.014;2023-03-23T06:42:32;309.45;;;39.38;;
42724;SDS011;28369;44.046;23.014;2023-03-23T06:44:58;258.40;;;44.50;;
42724;SDS011;28369;44.046;23.014;2023-03-23T06:47:26;314.35;;;43.90;;
42724;SDS011;28369;44.046;23.014;2023-03-23T06:49:55;348.92;;;50.95;;
42724;SDS011;28369;44.046;23.014;2023-03-23T06:52:21;343.45;;;43.42;;
42724;SDS011;28369;44.046;23.014;2023-03-23T06:54:51;273.08;;;38.67;;
42724;SDS011;28369;44.046;23.014;2023-03-23T06:57:17;203.75;;;34.55;;
42724;SDS011;28369;44.046;23.014;2023-03-23T06:59:43;309.60;;;37.70;;
42724;SDS011;28369;44.046;23.014;2023-03-23T07:02:13;118.05;;;37.50;;
42724;SDS011;28369;44.046;23.014;2023-03-23T07:04:39;188.55;;;32.15;;
42724;SDS011;28369;44.046;23.014;2023-03-23T07:07:07;112.32;;;32.00;;
42724;SDS011;28369;44.046;23.014;2023-03-23T07:09:34;169.32;;;32.30;;
42724;SDS011;28369;44.046;23.014;2023-03-23T07:12:00;223.60;;;34.70;;
42724;SDS011;28369;44.046;23.014;2023-03-23T07:14:26;285.77;;;36.38;;
42724;SDS011;28369;44.046;23.014;2023-03-23T07:16:52;160.85;;;33.30;;
42724;SDS011;28369;44.046;23.014;2023-03-23T07:25:02;85.03;;;33.22;;
42724;SDS011;28369;44.046;23.014;2023-03-23T07:27:27;173.45;;;31.10;;
42724;SDS011;28369;44.046;23.014;2023-03-23T07:29:53;104.32;;;31.95;;
42724;SDS011;28369;44.046;23.014;2023-03-23T07:32:27;79.05;;;32.10;;
42724;SDS011;28369;44.046;23.014;2023-03-23T07:34:53;78.40;;;32.22;;
42724;SDS011;28369;44.046;23.014;2023-03-23T07:37:18;113.13;;;33.60;;
42724;SDS011;28369;44.046;23.014;2023-03-23T07:39:44;83.75;;;35.63;;
42724;SDS011;28369;44.046;23.014;2023-03-23T07:42:10;63.05;;;32.63;;
42724;SDS011;28369;44.046;23.014;2023-03-23T07:44:35;49.13;;;31.60;;
42724;SDS011;28369;44.046;23.014;2023-03-23T07:56:20;52.65;;;30.35;;
42724;SDS011;28369;44.046;23.014;2023-03-23T09:50:25;33.25;;;26.38;;
42724;SDS011;28369;44.046;23.014;2023-03-23T10:51:57;28.45;;;25.13;;
42724;SDS011;28369;44.046;23.014;2023-03-23T11:00:52;28.42;;;25.23;;
42724;SDS011;28369;44.046;23.014;2023-03-23T11:03:43;27.45;;;24.30;;
42724;SDS011;28369;44.046;23.014;2023-03-23T11:06:58;24.90;;;22.27;;
42724;SDS011;28369;44.046;23.014;2023-03-23T11:10:14;25.52;;;22.77;;
42724;SDS011;28369;44.046;23.014;2023-03-23T11:13:32;25.42;;;22.60;;
42724;SDS011;28369;44.046;23.014;2023-03-23T11:22:08;24.20;;;21.60;;
42724;SDS011;28369;44.046;23.014;2023-03-23T11:25:19;21.73;;;19.53;;
42724;SDS011;28369;44.046;23.014;2023-03-23T11:27:46;21.17;;;18.98;;
42724;SDS011;28369;44.046;23.014;2023-03-23T11:33:07;20.20;;;18.13;;
42724;SDS011;28369;44.046;23.014;2023-03-23T11:35:33;19.80;;;17.70;;
42724;SDS011;28369;44.046;23.014;2023-03-23T11:37:58;19.90;;;17.90;;
42724;SDS011;28369;44.046;23.014;2023-03-23T11:40:29;20.52;;;16.77;;
42724;SDS011;28369;44.046;23.014;2023-03-23T11:45:40;16.90;;;15.05;;
42724;SDS011;28369;44.046;23.014;2023-03-23T11:57:11;15.10;;;13.50;;
42724;SDS011;28369;44.046;23.014;2023-03-23T11:59:38;14.18;;;12.68;;
42724;SDS011;28369;44.046;23.014;2023-03-23T12:10:39;16.52;;;13.77;;
42724;SDS011;28369;44.046;23.014;2023-03-23T12:13:19;15.73;;;13.50;;
42724;SDS011;28369;44.046;23.014;2023-03-23T12:15:58;14.27;;;12.77;;
42724;SDS011;28369;44.046;23.014;2023-03-23T12:24:13;11.60;;;10.55;;
42724;SDS011;28369;44.046;23.014;2023-03-23T12:26:47;14.63;;;13.23;;
42724;SDS011;28369;44.046;23.014;2023-03-23T12:40:16;12.30;;;11.10;;
42724;SDS011;28369;44.046;23.014;2023-03-23T12:42:55;11.60;;;10.52;;
42724;SDS011;28369;44.046;23.014;2023-03-23T12:48:16;15.05;;;11.15;;
42724;SDS011;28369;44.046;23.014;2023-03-23T12:59:08;12.55;;;10.38;;
42724;SDS011;28369;44.046;23.014;2023-03-23T13:01:58;11.85;;;10.40;;
42724;SDS011;28369;44.046;23.014;2023-03-23T13:04:35;12.00;;;10.80;;
42724;SDS011;28369;44.046;23.014;2023-03-23T13:07:05;11.07;;;10.02;;
42724;SDS011;28369;44.046;23.014;2023-03-23T13:12:24;10.77;;;9.77;;
42724;SDS011;28369;44.046;23.014;2023-03-23T13:18:10;11.98;;;10.77;;
42724;SDS011;28369;44.046;23.014;2023-03-23T13:20:40;12.68;;;10.75;;
42724;SDS011;28369;44.046;23.014;2023-03-23T13:23:18;10.65;;;9.65;;
42724;SDS011;28369;44.046;23.014;2023-03-23T13:25:51;10.82;;;9.73;;
42724;SDS011;28369;44.046;23.014;2023-03-23T13:28:24;11.32;;;9.90;;
42724;SDS011;28369;44.046;23.014;2023-03-23T13:30:57;10.02;;;9.05;;
42724;SDS011;28369;44.046;23.014;2023-03-23T13:33:32;10.10;;;9.10;;
42724;SDS011;28369;44.046;23.014;2023-03-23T13:36:07;10.23;;;9.25;;
42724;SDS011;28369;44.046;23.014;2023-03-23T13:38:35;12.60;;;9.30;;
42724;SDS011;28369;44.046;23.014;2023-03-23T13:41:06;9.43;;;8.32;;
42724;SDS011;28369;44.046;23.014;2023-03-23T13:43:35;10.80;;;9.70;;
42724;SDS011;28369;44.046;23.014;2023-03-23T13:46:08;10.45;;;9.45;;
42724;SDS011;28369;44.046;23.014;2023-03-23T13:56:52;10.65;;;9.52;;
42724;SDS011;28369;44.046;23.014;2023-03-23T14:01:52;9.55;;;8.63;;
42724;SDS011;28369;44.046;23.014;2023-03-23T14:04:20;9.02;;;8.13;;
42724;SDS011;28369;44.046;23.014;2023-03-23T14:06:47;9.98;;;9.05;;
42724;SDS011;28369;44.046;23.014;2023-03-23T14:11:54;9.25;;;8.27;;
42724;SDS011;28369;44.046;23.014;2023-03-23T14:17:22;11.60;;;8.30;;
42724;SDS011;28369;44.046;23.014;2023-03-23T14:19:54;8.32;;;7.53;;
42724;SDS011;28369;44.046;23.014;2023-03-23T14:22:23;9.10;;;8.15;;
42724;SDS011;28369;44.046;23.014;2023-03-23T14:24:51;8.98;;;8.07;;
42724;SDS011;28369;44.046;23.014;2023-03-23T14:27:23;9.07;;;8.20;;
42724;SDS011;28369;44.046;23.014;2023-03-23T14:29:59;9.48;;;8.30;;
42724;SDS011;28369;44.046;23.014;2023-03-23T14:32:27;8.18;;;7.45;;
42724;SDS011;28369;44.046;23.014;2023-03-23T14:34:55;9.82;;;8.93;;
42724;SDS011;28369;44.046;23.014;2023-03-23T14:37:20;10.18;;;9.10;;
42724;SDS011;28369;44.046;23.014;2023-03-23T14:39:51;10.70;;;8.77;;
42724;SDS011;28369;44.046;23.014;2023-03-23T14:42:37;10.27;;;9.10;;
42724;SDS011;28369;44.046;23.014;2023-03-23T14:45:03;9.88;;;8.88;;
42724;SDS011;28369;44.046;23.014;2023-03-23T14:47:38;10.23;;;9.20;;
42724;SDS011;28369;44.046;23.014;2023-03-23T14:53:03;9.57;;;8.63;;
42724;SDS011;28369;44.046;23.014;2023-03-23T14:55:36;9.35;;;8.35;;
42724;SDS011;28369;44.046;23.014;2023-03-23T14:58:08;9.52;;;8.63;;
42724;SDS011;28369;44.046;23.014;2023-03-23T15:00:39;8.65;;;7.85;;
42724;SDS011;28369;44.046;23.014;2023-03-23T15:03:10;9.00;;;8.00;;
42724;SDS011;28369;44.046;23.014;2023-03-23T15:05:41;9.02;;;8.15;;
42724;SDS011;28369;44.046;23.014;2023-03-23T15:08:15;11.18;;;8.55;;
42724;SDS011;28369;44.046;23.014;2023-03-23T15:11:01;11.45;;;8.68;;
42724;SDS011;28369;44.046;23.014;2023-03-23T15:13:34;10.45;;;9.43;;
42724;SDS011;28369;44.046;23.014;2023-03-23T15:16:05;11.90;;;8.88;;
42724;SDS011;28369;44.046;23.014;2023-03-23T15:18:37;9.52;;;8.63;;
42724;SDS011;28369;44.046;23.014;2023-03-23T15:21:18;10.15;;;8.75;;
42724;SDS011;28369;44.046;23.014;2023-03-23T15:23:47;9.50;;;8.52;;
42724;SDS011;28369;44.046;23.014;2023-03-23T15:26:19;10.40;;;9.30;;
42724;SDS011;28369;44.046;23.014;2023-03-23T15:31:53;14.55;;;9.13;;
42724;SDS011;28369;44.046;23.014;2023-03-23T15:36:52;10.93;;;9.83;;
42724;SDS011;28369;44.046;23.014;2023-03-23T15:39:22;12.80;;;9.68;;
42724;SDS011;28369;44.046;23.014;2023-03-23T15:41:49;10.32;;;9.32;;
42724;SDS011;28369;44.046;23.014;2023-03-23T15:44:20;10.90;;;9.80;;
42724;SDS011;28369;44.046;23.014;2023-03-23T15:46:51;10.63;;;9.52;;
42724;SDS011;28369;44.046;23.014;2023-03-23T15:49:26;12.38;;;10.70;;
42724;SDS011;28369;44.046;23.014;2023-03-23T15:51:51;10.90;;;9.77;;
42724;SDS011;28369;44.046;23.014;2023-03-23T15:54:17;10.80;;;9.75;;
42724;SDS011;28369;44.046;23.014;2023-03-23T15:56:44;10.75;;;9.65;;
42724;SDS011;28369;44.046;23.014;2023-03-23T15:59:10;11.15;;;10.05;;
42724;SDS011;28369;44.046;23.014;2023-03-23T16:01:36;13.35;;;11.63;;
42724;SDS011;28369;44.046;23.014;2023-03-23T16:04:04;15.70;;;12.10;;
42724;SDS011;28369;44.046;23.014;2023-03-23T16:06:34;13.07;;;10.85;;
42724;SDS011;28369;44.046;23.014;2023-03-23T16:09:00;12.63;;;10.57;;
42724;SDS011;28369;44.046;23.014;2023-03-23T16:11:28;10.57;;;9.48;;
42724;SDS011;28369;44.046;23.014;2023-03-23T16:13:55;12.20;;;10.60;;
42724;SDS011;28369;44.046;23.014;2023-03-23T16:19:43;11.82;;;10.20;;
42724;SDS011;28369;44.046;23.014;2023-03-23T16:22:09;12.35;;;10.20;;
42724;SDS011;28369;44.046;23.014;2023-03-23T16:24:35;13.48;;;10.52;;
42724;SDS011;28369;44.046;23.014;2023-03-23T16:27:00;15.43;;;10.63;;
42724;SDS011;28369;44.046;23.014;2023-03-23T16:29:26;12.48;;;11.25;;
42724;SDS011;28369;44.046;23.014;2023-03-23T16:31:52;24.15;;;10.85;;
42724;SDS011;28369;44.046;23.014;2023-03-23T16:34:17;14.00;;;12.45;;
42724;SDS011;28369;44.046;23.014;2023-03-23T16:36:43;19.92;;;15.73;;
42724;SDS011;28369;44.046;23.014;2023-03-23T16:39:11;24.70;;;15.40;;
42724;SDS011;28369;44.046;23.014;2023-03-23T16:41:41;25.13;;;16.50;;
42724;SDS011;28369;44.046;23.014;2023-03-23T16:44:10;19.88;;;14.88;;
42724;SDS011;28369;44.046;23.014;2023-03-23T16:46:36;52.83;;;47.17;;
42724;SDS011;28369;44.046;23.014;2023-03-23T16:49:01;77.68;;;63.45;;
42724;SDS011;28369;44.046;23.014;2023-03-23T16:51:27;53.40;;;47.88;;
42724;SDS011;28369;44.046;23.014;2023-03-23T16:53:53;154.85;;;128.10;;
42724;SDS011;28369;44.046;23.014;2023-03-23T16:56:22;58.60;;;45.13;;
42724;SDS011;28369;44.046;23.014;2023-03-23T16:58:47;92.05;;;68.97;;
42724;SDS011;28369;44.046;23.014;2023-03-23T21:02:24;51.95;;;38.40;;
42724;SDS011;28369;44.046;23.014;2023-03-23T21:04:53;55.28;;;40.25;;
42724;SDS011;28369;44.046;23.014;2023-03-23T21:07:19;48.40;;;36.25;;
42724;SDS011;28369;44.046;23.014;2023-03-23T21:09:47;46.33;;;36.50;;
42724;SDS011;28369;44.046;23.014;2023-03-23T21:12:13;48.08;;;35.42;;
42724;SDS011;28369;44.046;23.014;2023-03-23T21:14:39;49.00;;;38.25;;
42724;SDS011;28369;44.046;23.014;2023-03-23T21:17:14;61.50;;;46.22;;
42724;SDS011;28369;44.046;23.014;2023-03-23T21:19:40;57.75;;;43.42;;
42724;SDS011;28369;44.046;23.014;2023-03-23T21:22:07;63.63;;;45.92;;
42724;SDS011;28369;44.046;23.014;2023-03-23T21:24:34;59.33;;;42.67;;
42724;SDS011;28369;44.046;23.014;2023-03-23T21:27:13;88.05;;;56.92;;
42724;SDS011;28369;44.046;23.014;2023-03-23T21:29:39;180.73;;;116.85;;
42724;SDS011;28369;44.046;23.014;2023-03-23T21:32:05;67.68;;;45.67;;
42724;SDS011;28369;44.046;23.014;2023-03-23T21:34:31;77.07;;;55.38;;
42724;SDS011;28369;44.046;23.014;2023-03-23T21:36:56;57.00;;;43.67;;
42724;SDS011;28369;44.046;23.014;2023-03-23T21:39:22;59.67;;;44.10;;
42724;SDS011;28369;44.046;23.014;2023-03-23T21:41:47;59.70;;;43.55;;
42724;SDS011;28369;44.046;23.014;2023-03-23T21:44:13;60.10;;;41.92;;
42724;SDS011;28369;44.046;23.014;2023-03-23T21:46:39;59.50;;;43.00;;
42724;SDS011;28369;44.046;23.014;2023-03-23T21:49:08;48.38;;;37.90;;
42724;SDS011;28369;44.046;23.014;2023-03-23T21:51:38;48.88;;;37.78;;
42724;SDS011;28369;44.046;23.014;2023-03-23T21:54:04;56.40;;;39.28;;
42724;SDS011;28369;44.046;23.014;2023-03-23T21:56:30;46.83;;;38.25;;
42724;SDS011;28369;44.046;23.014;2023-03-23T21:58:56;48.72;;;36.92;;
42724;SDS011;28369;44.046;23.014;2023-03-23T22:01:22;60.33;;;45.28;;
42724;SDS011;28369;44.046;23.014;2023-03-23T22:03:48;46.85;;;37.78;;
42724;SDS011;28369;44.046;23.014;2023-03-23T22:06:24;53.83;;;37.85;;
42724;SDS011;28369;44.046;23.014;2023-03-23T22:08:52;54.72;;;40.28;;
42724;SDS011;28369;44.046;23.014;2023-03-23T22:11:20;54.67;;;41.13;;
42724;SDS011;28369;44.046;23.014;2023-03-23T22:13:51;61.42;;;44.17;;
42724;SDS011;28369;44.046;23.014;2023-03-23T22:16:18;92.95;;;62.92;;
42724;SDS011;28369;44.046;23.014;2023-03-23T22:18:45;58.20;;;44.20;;
42724;SDS011;28369;44.046;23.014;2023-03-23T22:21:12;58.17;;;43.65;;
42724;SDS011;28369;44.046;23.014;2023-03-23T22:23:39;62.85;;;44.50;;
42724;SDS011;28369;44.046;23.014;2023-03-23T22:26:06;49.88;;;38.00;;
42724;SDS011;28369;44.046;23.014;2023-03-23T22:28:32;51.20;;;38.92;;
42724;SDS011;28369;44.046;23.014;2023-03-23T22:31:02;55.70;;;39.55;;
42724;SDS011;28369;44.046;23.014;2023-03-23T22:33:31;54.20;;;38.05;;
42724;SDS011;28369;44.046;23.014;2023-03-23T22:35:57;51.40;;;39.03;;
42724;SDS011;28369;44.046;23.014;2023-03-23T22:38:29;48.65;;;36.78;;
42724;SDS011;28369;44.046;23.014;2023-03-23T22:40:55;53.47;;;37.92;;
42724;SDS011;28369;44.046;23.014;2023-03-23T22:43:23;50.35;;;38.45;;
42724;SDS011;28369;44.046;23.014;2023-03-23T22:45:50;55.13;;;40.28;;
42724;SDS011;28369;44.046;23.014;2023-03-23T22:48:16;52.33;;;38.42;;
42724;SDS011;28369;44.046;23.014;2023-03-23T22:50:43;45.35;;;36.28;;
42724;SDS011;28369;44.046;23.014;2023-03-23T22:53:11;51.17;;;39.88;;
42724;SDS011;28369;44.046;23.014;2023-03-23T22:55:44;52.17;;;40.22;;
42724;SDS011;28369;44.046;23.014;2023-03-23T22:58:12;55.92;;;39.30;;
42724;SDS011;28369;44.046;23.014;2023-03-23T23:00:38;48.17;;;38.63;;
42724;SDS011;28369;44.046;23.014;2023-03-23T23:03:05;56.13;;;37.33;;
42724;SDS011;28369;44.046;23.014;2023-03-23T23:05:32;52.33;;;38.38;;
42724;SDS011;28369;44.046;23.014;2023-03-23T23:07:58;52.15;;;37.97;;
42724;SDS011;28369;44.046;23.014;2023-03-23T23:10:24;52.60;;;38.67;;
42724;SDS011;28369;44.046;23.014;2023-03-23T23:12:50;51.65;;;38.33;;
42724;SDS011;28369;44.046;23.014;2023-03-23T23:15:18;50.88;;;37.60;;
42724;SDS011;28369;44.046;23.014;2023-03-23T23:17:44;51.03;;;39.30;;
42724;SDS011;28369;44.046;23.014;2023-03-23T23:20:10;52.22;;;38.10;;
42724;SDS011;28369;44.046;23.014;2023-03-23T23:22:37;56.13;;;39.95;;
42724;SDS011;28369;44.046;23.014;2023-03-23T23:25:06;51.80;;;39.55;;